To NAV CANADA Home Page Login to a new session Search on AWWS site Feedback and Comments Disclaimer Vers la page française équivalente Tips FAQ What's new on the site To the Forecasts and Observations / NOTAM section To "File a Flight Plan" website Publications and other links Update of the User's profile FIC Telephone Numbers My Weather Data Folder Route Weather Data Regional Weather Data Local Weather Data To the Forecasts and Observations / NOTAM section
Request Generated 02/27/2015 at 16:47:25 UTC . Weather information available at that time is displayed.

METAR/TAF

LLOYDMINSTER/AB    (show WxCam)

METAR CYLL 271600Z 33005KT 5SM -SN OVC039 M17/M20 A3011 RMK SC8
SLP262=
SPECI CYLL 271542Z 33007KT 8SM -SN BKN039 OVC095 M17/M21 A3011 RMK
SC5AC3 SLP261=
METAR CYLL 271500Z 32006KT 15SM OVC095 M18/M21 A3010 RMK AC8 SLP258=
METAR CYLL 271400Z 30004KT 15SM OVC090 M19/M21 A3008 RMK AC8 SLP253=

TAF CYLL 271138Z 2712/2724 28005KT P6SM SCT140 TEMPO 2712/2716 5SM
-SN SCT020 BKN090 OVC140
BECMG 2714/2716 34010KT
FM271600 34010KT P6SM SCT020 BKN030 TEMPO 2716/2721 5SM -SN
BKN020 OVC030
FM272100 32012KT P6SM SCT012 TEMPO 2721/2724 BKN012
RMK FCST BASED ON AUTO OBS. NXT FCST BY 271800Z=
Your time UTC time
Weather data provided by Environment Canada and NAV CANADA